Hoppa till innehåll

METAR väder och rapporter - ESGG

Nedan listas information från vald flygplats. Andra METARs finns längre ned på sidan. Kontakta oss om någon saknas eller skriv in egen ICAO-kod.

Andra intressanta METARs

Klicka på önskad rubrik nedan för att visa nuvarande väder för den platsen.

Avstånd från stationen: NO 27kmESGG - Göteborg (Landvetter)
Uppdaterad: 2020-08-04 20:50
 Vind från VSV
Vind: VSV 7 km/h
Temperatur: 13°C
Daggpunkt: 7°C
Luftfuktighet: 67%
Barometer: 1013 hPa
Summering: Klart
Sikt: mer än 10 km
2020/08/04 18:50 ESGG 041850Z 25004KT CAVOK 13/07 Q1013
Klart
Klart
  Visa detaljer för Göteborg (Landvetter)
Avstånd från stationen: N 28kmESGP - Göteborg (Säve)
Uppdaterad: 2020-08-04 21:14
 
unable to load ESGP data RC=404 Not Found
unable to load ESGP data RC=404 Not Found
  Visa detaljer för Göteborg (Säve)
Avstånd från stationen: NO 419kmESSA - Stockholm (Arlanda)
Uppdaterad: 2020-08-04 20:50
 Vind från SSV
Vind: SSV 6 km/h
Temperatur: 14°C
Daggpunkt: 10°C
Luftfuktighet: 77%
Barometer: 1009 hPa
Summering: Klart
Sikt: mer än 10 km
2020/08/04 18:50 ESSA 041850Z 20003KT CAVOK 14/10 Q1009 NOSIG
Klart
Klart
  Visa detaljer för Stockholm (Arlanda)
Avstånd från stationen: ONO 404kmESSB - Stockholm (Bromma)
Uppdaterad: 2020-08-04 20:50
 Vind från SV
Vind: SV 4 km/h
Temperatur: 18°C
Daggpunkt: 10°C
Luftfuktighet: 60%
Barometer: 1010 hPa
Moln: Klart
Sikt: 10 km
2020/08/04 18:50 ESSB 041850Z AUTO 23002KT 9999 NCD 18/10 Q1010
Klart
Klart
  Visa detaljer för Stockholm (Bromma)
Avstånd från stationen: ONO 323kmESKN - Stockholm (Skavsta)
Uppdaterad: 2020-08-04 20:50
 Vind från NV
Vind: NV 17 km/h
Temperatur: 14°C
Daggpunkt: 12°C
Luftfuktighet: 88%
Barometer: 1011 hPa
Summering: Lätt regn, Showers
Moln: Några få moln
Sikt: 10 km
Molninformation: Några få moln 1250 m
2020/08/04 18:50 ESKN 041850Z 31009KT 9999 -SHRA FEW041CB 14/12 Q1011
Lätt regn, Showers, Några få moln
Lätt regn
Showers
Några få moln
  Visa detaljer för Stockholm (Skavsta)
Avstånd från stationen: SSO 238kmESMS - Malmö flygplats (Sturup)
Uppdaterad: 2020-08-04 20:50
 Vind från SSV
Vind: SSV 9 km/h
Temperatur: 17°C
Daggpunkt: 9°C
Luftfuktighet: 59%
Barometer: 1014 hPa
Moln: Några få moln
Sikt: 10 km
Molninformation: Några få moln 1250 m
2020/08/04 18:50 ESMS 041850Z 21005KT 9999 FEW041 17/09 Q1014
Några få moln
Några få moln
  Visa detaljer för Malmö flygplats (Sturup)
Avstånd från stationen: O 382kmESSV - Visby flygplats
Uppdaterad: 2020-08-04 20:50
 Vind från VSV
Vind: VSV 11 km/h
Temperatur: 16°C
Daggpunkt: 12°C
Luftfuktighet: 77%
Barometer: 1011 hPa
Moln: Klart
Sikt: 10 km
2020/08/04 18:50 ESSV 041850Z AUTO 24006KT 9999 NCD 16/12 Q1011
Klart
Klart
  Visa detaljer för Visby flygplats
Avstånd från stationen: NNO 92kmESGT - Trollhättan
Uppdaterad: 2020-08-03 17:20
Ej aktuell
 
2020/08/03 15:20

  Visa detaljer för Trollhättan
Avstånd från stationen: ONO 129kmESGJ - Jönköpings flygplats
Uppdaterad: 2020-08-04 20:50
 Vind från VSV
Vind: VSV 13 km/h
Temperatur: 14°C
Daggpunkt: 6°C
Luftfuktighet: 59%
Barometer: 1013 hPa
Moln: Klart
Sikt: 10 km
2020/08/04 18:50 ESGJ 041850Z AUTO 25007KT 9999 NCD 14/06 Q1013
Klart
Klart
  Visa detaljer för Jönköpings flygplats
Avstånd från stationen: NNO 229kmESOK - Karlstad
Uppdaterad: 2020-08-04 16:20
Ej aktuell
 Vind från SSV
Vind: SSV 13 km/h
Temperatur: 19°C
Daggpunkt: 12°C
Luftfuktighet: 64%
Barometer: 1009 hPa
Moln: Delvis molnigt
Sikt: 10 km
Molninformation: Några få moln 762 m
Delvis molnigt 2316 m
2020/08/04 14:20 ESOK 041420Z 20007KT 160V240 9999 FEW025 SCT076 19/12 Q1009
Delvis molnigt
Delvis molnigt
  Visa detaljer för Karlstad
Avstånd från stationen: N 643kmESNZ - Östersund (Frösön)
Uppdaterad: 2020-08-04 17:50
Ej aktuell
 Vind från NO
Vind: NO 6 km/h
Temperatur: 15°C
Daggpunkt: 7°C
Luftfuktighet: 59%
Barometer: 1007 hPa
Moln: Klart
Sikt: 10 km
2020/08/04 15:50 ESNZ 041550Z AUTO 04003KT 300V090 9999 NCD 15/07 Q1007
Klart
Klart
  Visa detaljer för Östersund (Frösön)
Avstånd från stationen: SSO 216kmEKCH - Köpenhamn (Kastrup)
Uppdaterad: 2020-08-04 09:20
Ej aktuell
 Vind från NV
Vind: NV 17 km/h
Temperatur: 17°C
Daggpunkt: 10°C
Luftfuktighet: 64%
Barometer: 1013 hPa
Moln: Klart
Sikt: 10 km
2020/08/04 07:20 EKCH 040720Z AUTO 31009KT 9999 NCD 17/10 Q1013 NOSIG
Klart
Klart
  Visa detaljer för Köpenhamn (Kastrup)
Avstånd från stationen: SV 263kmEKBI - Billund Airport
Uppdaterad: 2020-08-04 20:50
 Vind från SV
Vind: SV 9 km/h
Temperatur: 14°C
Daggpunkt: 9°C
Luftfuktighet: 72%
Barometer: 1015 hPa
Moln: Klart
Sikt: 10 km
2020/08/04 18:50 EKBI 041850Z AUTO 22005KT 9999 NCD 14/09 Q1015
Klart
Klart
  Visa detaljer för Billund Airport
Avstånd från stationen: N 302kmENGM - Oslo (Gardermoen)
Uppdaterad: 2020-08-04 20:50
 Vind från SSV
Vind: SSV 19 km/h
Temperatur: 17°C
Daggpunkt: 8°C
Luftfuktighet: 56%
Barometer: 1008 hPa
Summering: Klart
Sikt: mer än 10 km
2020/08/04 18:50 ENGM 041850Z 20010KT CAVOK 17/08 Q1008 NOSIG
Klart
Klart
  Visa detaljer för Oslo (Gardermoen)
Avstånd från stationen: NO 540kmEFMA - Mariehamn / Åland
Uppdaterad: 2020-08-04 20:50
 Vind från varierande
Vind: varierande 4 km/h
Temperatur: 14°C
Daggpunkt: 9°C
Luftfuktighet: 72%
Barometer: 1010 hPa
Summering: Klart
Sikt: mer än 10 km
2020/08/04 18:50 EFMA 041850Z AUTO VRB02KT CAVOK 14/09 Q1010
Klart
Klart
  Visa detaljer för Mariehamn / Åland
Avstånd från stationen: S 558kmEDDT - Berlin (Tegel), Germany
Uppdaterad: 2020-08-04 20:50
 Vind från NNV
Vind: NNV 6 km/h
Temperatur: 20°C
Daggpunkt: 10°C
Luftfuktighet: 53%
Barometer: 1016 hPa
Summering: Klart
Sikt: mer än 10 km
2020/08/04 18:50 EDDT 041850Z 33003KT 300V360 CAVOK 20/10 Q1016 NOSIG
Klart
Klart
  Visa detaljer för Berlin (Tegel), Germany
Avstånd från stationen: SV 737kmEHAM - Amsterdam (Schiphol)
Uppdaterad: 2020-08-04 20:55
 Vind från S
Vind: S 13 km/h
Temperatur: 19°C
Daggpunkt: 9°C
Luftfuktighet: 52%
Barometer: 1015 hPa
Summering: Klart
Sikt: mer än 10 km
2020/08/04 18:55 EHAM 041855Z 17007KT CAVOK 19/09 Q1015 NOSIG
Klart
Klart
  Visa detaljer för Amsterdam (Schiphol)
Avstånd från stationen: ONO 808kmEFHK - Helsingfors (Vantaa)
Uppdaterad: 2020-08-04 20:50
 Vind från S
Vind: S 6 km/h
Temperatur: 16°C
Daggpunkt: 15°C
Luftfuktighet: 94%
Barometer: 1009 hPa
Moln: Några få moln
Sikt: 10 km
Molninformation: Några få moln 152 m
2020/08/04 18:50 EFHK 041850Z 19003KT 9999 FEW005 16/15 Q1009 NOSIG
Några få moln
Några få moln
  Visa detaljer för Helsingfors (Vantaa)
Avstånd från stationen: SSV 537kmEDDW - Bremen
Uppdaterad: 2020-08-04 20:50
 Vind från NNO
Vind: NNO 7 km/h
Temperatur: 18°C
Daggpunkt: 11°C
Luftfuktighet: 64%
Barometer: 1016 hPa
Moln: Några få moln
Sikt: 10 km
Molninformation: Några få moln 1463 m
2020/08/04 18:50 EDDW 041850Z 03004KT 9999 FEW048 18/11 Q1016 NOSIG
Några få moln
Några få moln
  Visa detaljer för Bremen
Avstånd från stationen: SSV 861kmEDDF - Frankfurt am Main
Uppdaterad: 2020-08-04 20:50
 Vind från NV
Vind: NV 9 km/h
Temperatur: 22°C
Daggpunkt: 7°C
Luftfuktighet: 38%
Barometer: 1016 hPa
Summering: Klart
Sikt: mer än 10 km
2020/08/04 18:50 EDDF 041850Z 31005KT 280V340 CAVOK 22/07 Q1016 NOSIG
Klart
Klart
  Visa detaljer för Frankfurt am Main
Avstånd från stationen: SV 880kmEBBR - Bryssel international
Uppdaterad: 2020-08-04 20:50
 Vind från S
Vind: S 7 km/h
Temperatur: 21°C
Daggpunkt: 7°C
Luftfuktighet: 40%
Barometer: 1016 hPa
Summering: Klart
Sikt: mer än 10 km
2020/08/04 18:50 EBBR 041850Z 19004KT CAVOK 21/07 Q1016 NOSIG
Klart
Klart
  Visa detaljer för Bryssel international
Avstånd från stationen: SV 738kmEHAM - Amsterdam (Schiphol)
Uppdaterad: 2020-08-04 20:55
 Vind från S
Vind: S 13 km/h
Temperatur: 19°C
Daggpunkt: 9°C
Luftfuktighet: 52%
Barometer: 1015 hPa
Summering: Klart
Sikt: mer än 10 km
2020/08/04 18:55 EHAM 041855Z 17007KT CAVOK 19/09 Q1015 NOSIG
Klart
Klart
  Visa detaljer för Amsterdam (Schiphol)
Avstånd från stationen: SV 1044kmEGLL - London (Heathrow)
Uppdaterad: 2020-08-04 20:50
 Vind från SV
Vind: SV 24 km/h
Temperatur: 20°C
Daggpunkt: 11°C
Luftfuktighet: 56%
Barometer: 1014 hPa
Moln: Klart
Sikt: 10 km
2020/08/04 18:50 EGLL 041850Z AUTO 22013KT 9999 NCD 20/11 Q1014 NOSIG
Klart
Klart
  Visa detaljer för London (Heathrow)
Avstånd från stationen: SV 1132kmLFPG - Paris (Charles de Gaulle)
Uppdaterad: 2020-08-04 21:00
 Vind från V
Vind: V 7 km/h
Temperatur: 24°C
Daggpunkt: 6°C
Luftfuktighet: 31%
Barometer: 1017 hPa
Summering: Klart
Sikt: mer än 10 km
2020/08/04 19:00 LFPG 041900Z 28004KT CAVOK 24/06 Q1017 NOSIG
Klart
Klart
  Visa detaljer för Paris (Charles de Gaulle)
Avstånd från stationen: SSV 1142kmLSZH - Zürich Airport
Uppdaterad: 2020-08-04 20:50
 Vind från NNO
Vind: NNO 4 km/h
Temperatur: 14°C
Daggpunkt: 13°C
Luftfuktighet: 94%
Barometer: 1019 hPa
Summering: Klart
Sikt: mer än 10 km
2020/08/04 18:50 LSZH 041850Z 03002KT CAVOK 14/13 Q1019 NOSIG
Klart
Klart
  Visa detaljer för Zürich Airport
Avstånd från stationen: S 1749kmLIRF - Rome Airport (Fiumicino - Leonardo da Vinci)
Uppdaterad: 2020-08-04 20:50
 Vind från VNV
Vind: VNV 15 km/h
Temperatur: 25°C
Daggpunkt: 13°C
Luftfuktighet: 47%
Barometer: 1006 hPa
Summering: Klart
Sikt: mer än 10 km
2020/08/04 18:50 LIRF 041850Z 29008KT CAVOK 25/13 Q1006 NOSIG
Klart
Klart
  Visa detaljer för Rome Airport (Fiumicino - Leonardo da Vinci)
Avstånd från stationen: SO 2679kmLTAI - Antalya
Uppdaterad: 2020-08-04 20:50
 Vind från O
Vind: O 6 km/h
Temperatur: 29°C
Värmeindex: 31°C
Daggpunkt: 21°C
Luftfuktighet: 62%
Barometer: 1003 hPa
Summering: Klart
Sikt: mer än 10 km
2020/08/04 18:50 LTAI 041850Z 10003KT CAVOK 29/21 Q1003 NOSIG
Klart
Klart
  Visa detaljer för Antalya
Avstånd från stationen: VSV 6074kmKJFK - New Your (JFK)
Uppdaterad: 2020-08-04 20:51
 Vind från S
Vind: S 52 km/h
Vindby: 69 km/h
Temperatur: 23°C
Daggpunkt: 20°C
Luftfuktighet: 83%
Barometer: 998.6 hPa
Summering: Lätt regn
Moln: Övervägande molnigt
Sikt: 8 km
Molninformation: Övervägande molnigt 396 m
Övervägande molnigt 549 m
Övervägande molnigt 1036 m
2020/08/04 18:51 KJFK 041851Z 18028G37KT 5SM -RA BKN013 BKN018 BKN034 23/20 A2949 RMK AO2 PK WND 16058/1757 SLP986 BKN013 V SCT P0000 T02280200 $
Lätt regn, Övervägande molnigt
Lätt regn
Övervägande molnigt
  Visa detaljer för New Your (JFK)
Avstånd från stationen: VSV 8848kmKLAX - Los Angeles International Airport
Uppdaterad: 2020-08-04 20:17
 Vind från calm
Vind: Vindstilla
Temperatur: 21°C
Daggpunkt: 16°C
Luftfuktighet: 73%
Barometer: 1015.6 hPa
Moln: Genommulet
Sikt: 13 km
Molninformation: Genommulet 488 m
2020/08/04 18:17 KLAX 041817Z 00000KT 8SM OVC016 21/16 A2999 RMK AO2 T02110161
Genommulet
Genommulet
  Visa detaljer för Los Angeles International Airport
Avstånd från stationen: SO 4968kmOMDB - Dubai International Airport
Uppdaterad: 2020-08-04 21:00
 Vind från VSV
Vind: VSV 9 km/h
Temperatur: 34°C
Värmeindex: 52°C
Daggpunkt: 30°C
Luftfuktighet: 80%
Barometer: 993 hPa
Summering: Klart
Sikt: mer än 10 km
2020/08/04 19:00 OMDB 041900Z 25005KT CAVOK 34/30 Q0993 NOSIG
Klart
Klart
  Visa detaljer för Dubai International Airport
Avstånd från stationen: OSO 8570kmRJTT - Tokyo International Airport
Uppdaterad: 2020-08-04 20:30
 Vind från S
Vind: S 9 km/h
Temperatur: 26°C
Daggpunkt: 24°C
Luftfuktighet: 89%
Barometer: 1016 hPa
Moln: Övervägande molnigt
Sikt: 10 km
Molninformation: Några få moln 366 m
Övervägande molnigt 457 m
2020/08/04 18:30 RJTT 041830Z 18005KT 9999 FEW012 BKN015 26/24 Q1016 NOSIG RMK 1CU012 5CU015 A3001
Övervägande molnigt
Övervägande molnigt
  Visa detaljer för Tokyo International Airport
Avstånd från stationen: OSO 7125kmZBAA - Peking (Beijing Capital)
Uppdaterad: 2020-08-04 20:30
 Vind från ONO
Vind: ONO 7 km/h
Temperatur: 26°C
Daggpunkt: 24°C
Luftfuktighet: 89%
Barometer: 1005 hPa
Summering: Klart
Sikt: mer än 10 km
2020/08/04 18:30 ZBAA 041830Z 06002MPS CAVOK 26/24 Q1005 NOSIG
Klart
Klart
  Visa detaljer för Peking (Beijing Capital)
VÄDER KURIOSA -  RecyclingIn 2006, a record 53.4 percent of the paper consumed in the U.S. was recovered for recycling. Americans recovered an extraordinary 53.5 million tons, averaging 360 pounds per person.